Decoded Metar for OPPS (PESHAWAR in PAKISTAN) (IATA:PEW) | Meteo·Mobile Aviation Weather
aviador You're here:

OPPS Decoded Metar

PESHAWAR in PAKISTAN
Report Time2019-06-26 18:30:00
UTC Time2019-06-26 18:59:24
Flight Rules mvfr MVFR
Wind180° at 08 kt
W.Decomp.*RWY 17: 7.9 kt HW 1.1 kt RCW
Visibility6000 m
Phenomena:Haze
Clouds:Few 120 Hf
Expected CloudBase > 6,800 ft AGL from Temp-Dew spread
CeilingNone
Temp31°C (ISA +18)
Dew Point14°C (35% RH)
Heat Index30.3°C
AAT29.3°C
QNH0999 hPa
Density Alt3,960 ft
Elevation1,181 ft
Report Wrong Elevation
Raw Report
METAR OPPS 261830Z 18008KT 6000 HZ FEW120 31/14 Q0999=

Extra information for OPPS:More info

Metar Taf Metar & Taf Last 4 Metars F.Rules Stats Wind Profile Meteogram Temp Stats Airport Information Weather charts Add Link Nearby VenuesMetar ALERT Operation Metar Decoded Social comments